Beaver Islander — WT5906 — position and weather

sailwx.info

Track history (hours):
 
Tides and Currents Weather Stations Pressure Air Temp Water Temp Dewpoint Dewpoint Depression Visibility Wind Speed Wind Dir Waves Ship Positions

Beaver Islander

Owner: BEAVER ISLAND BOAT CO, CHARLEVOIX, MI. More information available from US FCC via Universal Licensing System and Coast Guard Vessel Documentation Center.

Last reported at 2016-May-20 16:34 UTC. Time now 2016-May-29 03:51 UTC.
Position N 45°44' W 085°30'.
Warning: this ship's position is 8 days out of date.

Length 28 m; draft 3 m.

Type: Passenger vessel. MMSI: 366936060.

Date/timePositionNaut miles runAvg speedWind from/ knotsBaromVisibWave heightAir tempDewpointWater temp
2016-May-20 16:34N 45°44' W 085°30'1312.9
2016-May-20 15:34N 45°32' W 085°23'1313.0
2016-May-20 14:33N 45°20' W 085°16'2 0.1
2016-May-19 20:33N 45°19' W 085°14'1 1.1
2016-May-19 19:33N 45°19' W 085°15'0 0.0
2016-May-19 13:33N 45°19' W 085°15'0 0.0
2016-May-19 12:33N 45°19' W 085°15'  
2016-May-16 15:33N 45°19' W 085°15'9 9.1
2016-May-16 14:33N 45°28' W 085°20'1312.7
2016-May-16 13:33N 45°39' W 085°27'6 6.2
2016-May-16 12:33N 45°45' W 085°31'0 0.0
2016-May-16 11:33N 45°45' W 085°31'  
Track history (hours):
 
Tides and Currents Weather Stations Pressure Air Temp Water Temp Dewpoint Dewpoint Depression Visibility Wind Speed Wind Dir Waves Ship Positions

Beaver Islander

Owner: BEAVER ISLAND BOAT CO, CHARLEVOIX, MI. More information available from US FCC via Universal Licensing System and Coast Guard Vessel Documentation Center.

Last reported at 2016-May-20 16:34 UTC. Time now 2016-May-29 03:51 UTC.
Position N 45°44' W 085°30'.
Warning: this ship's position is 8 days out of date.

Length 28 m; draft 3 m.

Type: Passenger vessel. MMSI: 366936060.

Date/timePositionNaut miles runAvg speedWind from/ knotsBaromVisibWave heightAir tempDewpointWater temp
2016-May-20 16:34N 45°44' W 085°30'1312.9
2016-May-20 15:34N 45°32' W 085°23'1313.0
2016-May-20 14:33N 45°20' W 085°16'2 0.1
2016-May-19 20:33N 45°19' W 085°14'1 1.1
2016-May-19 19:33N 45°19' W 085°15'0 0.0
2016-May-19 13:33N 45°19' W 085°15'0 0.0
2016-May-19 12:33N 45°19' W 085°15'  
2016-May-16 15:33N 45°19' W 085°15'9 9.1
2016-May-16 14:33N 45°28' W 085°20'1312.7
2016-May-16 13:33N 45°39' W 085°27'6 6.2
2016-May-16 12:33N 45°45' W 085°31'0 0.0
2016-May-16 11:33N 45°45' W 085°31'  

Dump ship's entire track history